sensor_id;sensor_type;location;lat;lon;timestamp;P1;durP1;ratioP1;P2;durP2;ratioP2
27365;SDS011;14837;57.148;-2.144;2022-10-31T00:00:12;3.75;;;1.70;;
27365;SDS011;14837;57.148;-2.144;2022-10-31T00:02:39;3.33;;;1.10;;
27365;SDS011;14837;57.148;-2.144;2022-10-31T00:05:06;3.63;;;1.30;;
27365;SDS011;14837;57.148;-2.144;2022-10-31T00:07:32;3.22;;;1.42;;
27365;SDS011;14837;57.148;-2.144;2022-10-31T00:09:59;3.80;;;1.27;;
27365;SDS011;14837;57.148;-2.144;2022-10-31T00:12:25;3.72;;;2.13;;
27365;SDS011;14837;57.148;-2.144;2022-10-31T00:14:52;5.13;;;2.38;;
27365;SDS011;14837;57.148;-2.144;2022-10-31T00:17:22;2.85;;;1.20;;
27365;SDS011;14837;57.148;-2.144;2022-10-31T00:19:49;4.22;;;1.48;;
27365;SDS011;14837;57.148;-2.144;2022-10-31T00:22:15;3.03;;;1.25;;
27365;SDS011;14837;57.148;-2.144;2022-10-31T00:24:42;3.97;;;1.73;;
27365;SDS011;14837;57.148;-2.144;2022-10-31T00:27:08;3.85;;;1.80;;
27365;SDS011;14837;57.148;-2.144;2022-10-31T00:29:35;5.03;;;1.83;;
27365;SDS011;14837;57.148;-2.144;2022-10-31T00:32:01;4.00;;;1.73;;
27365;SDS011;14837;57.148;-2.144;2022-10-31T00:34:28;7.25;;;1.63;;
27365;SDS011;14837;57.148;-2.144;2022-10-31T00:36:54;5.90;;;1.95;;
27365;SDS011;14837;57.148;-2.144;2022-10-31T00:39:21;3.33;;;1.60;;
27365;SDS011;14837;57.148;-2.144;2022-10-31T00:41:47;2.80;;;1.60;;
27365;SDS011;14837;57.148;-2.144;2022-10-31T00:44:14;4.90;;;1.83;;
27365;SDS011;14837;57.148;-2.144;2022-10-31T00:46:40;5.03;;;2.30;;
27365;SDS011;14837;57.148;-2.144;2022-10-31T00:49:07;3.65;;;1.38;;
27365;SDS011;14837;57.148;-2.144;2022-10-31T00:51:33;4.00;;;1.67;;
27365;SDS011;14837;57.148;-2.144;2022-10-31T00:54:00;4.80;;;2.08;;
27365;SDS011;14837;57.148;-2.144;2022-10-31T00:56:26;7.35;;;2.53;;
27365;SDS011;14837;57.148;-2.144;2022-10-31T00:58:53;6.72;;;2.30;;
27365;SDS011;14837;57.148;-2.144;2022-10-31T01:01:19;2.20;;;1.77;;
27365;SDS011;14837;57.148;-2.144;2022-10-31T01:03:46;4.72;;;2.95;;
27365;SDS011;14837;57.148;-2.144;2022-10-31T01:06:13;3.90;;;1.77;;
27365;SDS011;14837;57.148;-2.144;2022-10-31T01:08:39;2.88;;;1.65;;
27365;SDS011;14837;57.148;-2.144;2022-10-31T01:11:07;7.93;;;2.38;;
27365;SDS011;14837;57.148;-2.144;2022-10-31T01:13:34;3.83;;;1.77;;
27365;SDS011;14837;57.148;-2.144;2022-10-31T01:16:02;4.47;;;1.70;;
27365;SDS011;14837;57.148;-2.144;2022-10-31T01:18:29;6.03;;;1.98;;
27365;SDS011;14837;57.148;-2.144;2022-10-31T01:20:57;2.28;;;1.55;;
27365;SDS011;14837;57.148;-2.144;2022-10-31T01:23:23;5.32;;;1.98;;
27365;SDS011;14837;57.148;-2.144;2022-10-31T01:25:57;2.92;;;1.50;;
27365;SDS011;14837;57.148;-2.144;2022-10-31T01:28:24;3.38;;;1.67;;
27365;SDS011;14837;57.148;-2.144;2022-10-31T01:30:50;2.45;;;1.40;;
27365;SDS011;14837;57.148;-2.144;2022-10-31T01:33:17;3.85;;;1.52;;
27365;SDS011;14837;57.148;-2.144;2022-10-31T01:35:43;2.35;;;1.40;;
27365;SDS011;14837;57.148;-2.144;2022-10-31T01:38:10;3.33;;;1.67;;
27365;SDS011;14837;57.148;-2.144;2022-10-31T01:40:36;2.22;;;1.35;;
27365;SDS011;14837;57.148;-2.144;2022-10-31T01:43:03;6.68;;;1.65;;
27365;SDS011;14837;57.148;-2.144;2022-10-31T01:45:29;4.18;;;1.40;;
27365;SDS011;14837;57.148;-2.144;2022-10-31T01:47:56;5.07;;;1.80;;
27365;SDS011;14837;57.148;-2.144;2022-10-31T01:50:28;5.40;;;1.88;;
27365;SDS011;14837;57.148;-2.144;2022-10-31T01:52:57;3.67;;;1.75;;
27365;SDS011;14837;57.148;-2.144;2022-10-31T01:55:25;5.68;;;2.65;;
27365;SDS011;14837;57.148;-2.144;2022-10-31T01:57:57;5.15;;;1.83;;
27365;SDS011;14837;57.148;-2.144;2022-10-31T02:00:25;7.13;;;1.80;;
27365;SDS011;14837;57.148;-2.144;2022-10-31T02:02:51;2.55;;;1.52;;
27365;SDS011;14837;57.148;-2.144;2022-10-31T02:05:20;9.90;;;1.92;;
27365;SDS011;14837;57.148;-2.144;2022-10-31T02:07:52;5.68;;;1.50;;
27365;SDS011;14837;57.148;-2.144;2022-10-31T02:10:21;8.50;;;1.93;;
27365;SDS011;14837;57.148;-2.144;2022-10-31T02:12:49;5.78;;;2.25;;
27365;SDS011;14837;57.148;-2.144;2022-10-31T02:15:16;7.38;;;1.50;;
27365;SDS011;14837;57.148;-2.144;2022-10-31T02:17:43;4.18;;;1.60;;
27365;SDS011;14837;57.148;-2.144;2022-10-31T02:22:40;2.72;;;1.30;;
27365;SDS011;14837;57.148;-2.144;2022-10-31T02:32:35;5.20;;;2.05;;
27365;SDS011;14837;57.148;-2.144;2022-10-31T02:37:36;6.13;;;2.38;;
27365;SDS011;14837;57.148;-2.144;2022-10-31T02:42:35;6.80;;;1.65;;
27365;SDS011;14837;57.148;-2.144;2022-10-31T02:47:36;4.82;;;1.58;;
27365;SDS011;14837;57.148;-2.144;2022-10-31T02:50:13;5.78;;;1.65;;
27365;SDS011;14837;57.148;-2.144;2022-10-31T02:52:40;5.40;;;1.70;;
27365;SDS011;14837;57.148;-2.144;2022-10-31T02:57:49;3.30;;;1.50;;
27365;SDS011;14837;57.148;-2.144;2022-10-31T03:00:17;5.78;;;2.10;;
27365;SDS011;14837;57.148;-2.144;2022-10-31T03:05:23;9.63;;;1.48;;
27365;SDS011;14837;57.148;-2.144;2022-10-31T03:08:13;9.88;;;1.98;;
27365;SDS011;14837;57.148;-2.144;2022-10-31T03:15:53;5.60;;;2.00;;
27365;SDS011;14837;57.148;-2.144;2022-10-31T03:18:57;4.68;;;2.55;;
27365;SDS011;14837;57.148;-2.144;2022-10-31T03:21:20;6.88;;;1.63;;
27365;SDS011;14837;57.148;-2.144;2022-10-31T03:23:48;5.00;;;1.50;;
27365;SDS011;14837;57.148;-2.144;2022-10-31T03:26:16;5.13;;;1.65;;
27365;SDS011;14837;57.148;-2.144;2022-10-31T03:28:45;5.43;;;2.10;;
27365;SDS011;14837;57.148;-2.144;2022-10-31T03:31:13;3.00;;;1.65;;
27365;SDS011;14837;57.148;-2.144;2022-10-31T03:33:42;7.35;;;1.75;;
27365;SDS011;14837;57.148;-2.144;2022-10-31T03:36:09;6.18;;;1.55;;
27365;SDS011;14837;57.148;-2.144;2022-10-31T03:38:36;5.78;;;2.05;;
27365;SDS011;14837;57.148;-2.144;2022-10-31T03:41:05;9.10;;;1.67;;
27365;SDS011;14837;57.148;-2.144;2022-10-31T03:43:38;5.55;;;1.98;;
27365;SDS011;14837;57.148;-2.144;2022-10-31T03:46:06;5.18;;;1.60;;
27365;SDS011;14837;57.148;-2.144;2022-10-31T03:48:33;6.30;;;1.80;;
27365;SDS011;14837;57.148;-2.144;2022-10-31T03:51:07;4.60;;;1.58;;
27365;SDS011;14837;57.148;-2.144;2022-10-31T03:53:39;5.97;;;1.90;;
27365;SDS011;14837;57.148;-2.144;2022-10-31T03:56:09;9.25;;;2.15;;
27365;SDS011;14837;57.148;-2.144;2022-10-31T03:58:50;6.43;;;1.80;;
27365;SDS011;14837;57.148;-2.144;2022-10-31T04:01:20;2.70;;;1.08;;
27365;SDS011;14837;57.148;-2.144;2022-10-31T04:03:48;5.18;;;1.35;;
27365;SDS011;14837;57.148;-2.144;2022-10-31T04:06:15;4.15;;;2.00;;
27365;SDS011;14837;57.148;-2.144;2022-10-31T04:08:44;5.47;;;1.95;;
27365;SDS011;14837;57.148;-2.144;2022-10-31T04:11:13;6.97;;;1.52;;
27365;SDS011;14837;57.148;-2.144;2022-10-31T04:13:41;9.63;;;2.50;;
27365;SDS011;14837;57.148;-2.144;2022-10-31T04:16:10;9.68;;;1.80;;
27365;SDS011;14837;57.148;-2.144;2022-10-31T04:18:42;8.70;;;2.20;;
27365;SDS011;14837;57.148;-2.144;2022-10-31T04:21:08;9.30;;;2.75;;
27365;SDS011;14837;57.148;-2.144;2022-10-31T04:23:35;8.85;;;2.22;;
27365;SDS011;14837;57.148;-2.144;2022-10-31T04:26:02;4.97;;;1.50;;
27365;SDS011;14837;57.148;-2.144;2022-10-31T04:28:29;6.10;;;2.00;;
27365;SDS011;14837;57.148;-2.144;2022-10-31T04:30:55;7.07;;;2.15;;
27365;SDS011;14837;57.148;-2.144;2022-10-31T04:33:22;8.60;;;1.92;;
27365;SDS011;14837;57.148;-2.144;2022-10-31T04:35:48;4.53;;;1.55;;
27365;SDS011;14837;57.148;-2.144;2022-10-31T04:38:15;9.93;;;2.00;;
27365;SDS011;14837;57.148;-2.144;2022-10-31T04:40:41;6.43;;;1.90;;
27365;SDS011;14837;57.148;-2.144;2022-10-31T04:43:08;4.55;;;1.73;;
27365;SDS011;14837;57.148;-2.144;2022-10-31T04:45:34;3.42;;;2.03;;
27365;SDS011;14837;57.148;-2.144;2022-10-31T04:48:01;6.97;;;1.92;;
27365;SDS011;14837;57.148;-2.144;2022-10-31T04:50:28;10.15;;;1.95;;
27365;SDS011;14837;57.148;-2.144;2022-10-31T04:52:54;4.75;;;1.58;;
27365;SDS011;14837;57.148;-2.144;2022-10-31T04:55:21;8.43;;;2.72;;
27365;SDS011;14837;57.148;-2.144;2022-10-31T04:57:48;5.40;;;1.52;;
27365;SDS011;14837;57.148;-2.144;2022-10-31T05:00:16;6.60;;;1.50;;
27365;SDS011;14837;57.148;-2.144;2022-10-31T05:02:47;5.00;;;2.05;;
27365;SDS011;14837;57.148;-2.144;2022-10-31T05:05:14;4.57;;;2.00;;
27365;SDS011;14837;57.148;-2.144;2022-10-31T05:07:41;4.50;;;1.67;;
27365;SDS011;14837;57.148;-2.144;2022-10-31T05:10:12;7.18;;;2.40;;
27365;SDS011;14837;57.148;-2.144;2022-10-31T05:12:45;7.45;;;2.00;;
27365;SDS011;14837;57.148;-2.144;2022-10-31T05:15:12;9.80;;;1.95;;
27365;SDS011;14837;57.148;-2.144;2022-10-31T05:17:38;6.85;;;2.83;;
27365;SDS011;14837;57.148;-2.144;2022-10-31T05:20:06;8.63;;;2.00;;
27365;SDS011;14837;57.148;-2.144;2022-10-31T05:22:33;8.02;;;2.53;;
27365;SDS011;14837;57.148;-2.144;2022-10-31T05:24:59;9.43;;;2.53;;
27365;SDS011;14837;57.148;-2.144;2022-10-31T05:27:26;4.80;;;1.73;;
27365;SDS011;14837;57.148;-2.144;2022-10-31T05:29:52;8.20;;;2.58;;
27365;SDS011;14837;57.148;-2.144;2022-10-31T05:32:19;6.25;;;1.83;;
27365;SDS011;14837;57.148;-2.144;2022-10-31T05:34:45;4.63;;;1.80;;
27365;SDS011;14837;57.148;-2.144;2022-10-31T05:37:12;13.77;;;2.80;;
27365;SDS011;14837;57.148;-2.144;2022-10-31T05:39:38;8.27;;;1.70;;
27365;SDS011;14837;57.148;-2.144;2022-10-31T05:42:05;16.10;;;2.55;;
27365;SDS011;14837;57.148;-2.144;2022-10-31T05:44:31;5.50;;;1.67;;
27365;SDS011;14837;57.148;-2.144;2022-10-31T05:46:58;11.75;;;2.40;;
27365;SDS011;14837;57.148;-2.144;2022-10-31T05:49:24;11.18;;;2.17;;
27365;SDS011;14837;57.148;-2.144;2022-10-31T05:51:51;9.40;;;1.98;;
27365;SDS011;14837;57.148;-2.144;2022-10-31T05:54:17;12.48;;;4.05;;
27365;SDS011;14837;57.148;-2.144;2022-10-31T05:56:43;8.55;;;2.30;;
27365;SDS011;14837;57.148;-2.144;2022-10-31T05:59:10;13.13;;;3.47;;
27365;SDS011;14837;57.148;-2.144;2022-10-31T06:01:36;10.93;;;2.88;;
27365;SDS011;14837;57.148;-2.144;2022-10-31T06:04:03;11.90;;;2.92;;
27365;SDS011;14837;57.148;-2.144;2022-10-31T06:06:30;7.97;;;2.55;;
27365;SDS011;14837;57.148;-2.144;2022-10-31T06:08:56;11.95;;;2.08;;
27365;SDS011;14837;57.148;-2.144;2022-10-31T06:11:23;13.48;;;2.70;;
27365;SDS011;14837;57.148;-2.144;2022-10-31T06:13:49;10.48;;;3.47;;
27365;SDS011;14837;57.148;-2.144;2022-10-31T06:16:16;8.63;;;2.85;;
27365;SDS011;14837;57.148;-2.144;2022-10-31T06:18:42;10.73;;;2.58;;
27365;SDS011;14837;57.148;-2.144;2022-10-31T06:21:09;10.50;;;2.95;;
27365;SDS011;14837;57.148;-2.144;2022-10-31T06:23:40;14.50;;;3.17;;
27365;SDS011;14837;57.148;-2.144;2022-10-31T06:26:06;16.95;;;3.45;;
27365;SDS011;14837;57.148;-2.144;2022-10-31T06:28:33;7.82;;;3.60;;
27365;SDS011;14837;57.148;-2.144;2022-10-31T06:30:59;11.85;;;2.72;;
27365;SDS011;14837;57.148;-2.144;2022-10-31T06:33:26;9.30;;;3.80;;
27365;SDS011;14837;57.148;-2.144;2022-10-31T06:35:52;14.13;;;2.78;;
27365;SDS011;14837;57.148;-2.144;2022-10-31T06:38:18;16.25;;;3.97;;
27365;SDS011;14837;57.148;-2.144;2022-10-31T06:40:45;22.00;;;3.97;;
27365;SDS011;14837;57.148;-2.144;2022-10-31T06:43:11;16.02;;;3.08;;
27365;SDS011;14837;57.148;-2.144;2022-10-31T06:45:38;17.05;;;3.70;;
27365;SDS011;14837;57.148;-2.144;2022-10-31T06:48:05;13.77;;;3.85;;
27365;SDS011;14837;57.148;-2.144;2022-10-31T06:50:47;16.00;;;3.60;;
27365;SDS011;14837;57.148;-2.144;2022-10-31T06:53:14;15.57;;;4.35;;
27365;SDS011;14837;57.148;-2.144;2022-10-31T06:55:41;19.90;;;4.30;;
27365;SDS011;14837;57.148;-2.144;2022-10-31T06:58:08;22.50;;;4.47;;
27365;SDS011;14837;57.148;-2.144;2022-10-31T07:00:35;15.40;;;3.70;;
27365;SDS011;14837;57.148;-2.144;2022-10-31T07:03:03;15.98;;;4.38;;
27365;SDS011;14837;57.148;-2.144;2022-10-31T07:05:30;18.55;;;5.07;;
27365;SDS011;14837;57.148;-2.144;2022-10-31T07:07:58;16.75;;;4.47;;
27365;SDS011;14837;57.148;-2.144;2022-10-31T07:10:26;13.27;;;3.75;;
27365;SDS011;14837;57.148;-2.144;2022-10-31T07:12:55;18.27;;;4.15;;
27365;SDS011;14837;57.148;-2.144;2022-10-31T07:15:26;15.48;;;4.30;;
27365;SDS011;14837;57.148;-2.144;2022-10-31T07:17:53;11.23;;;3.00;;
27365;SDS011;14837;57.148;-2.144;2022-10-31T07:20:20;19.15;;;3.97;;
27365;SDS011;14837;57.148;-2.144;2022-10-31T07:22:46;14.15;;;3.08;;
27365;SDS011;14837;57.148;-2.144;2022-10-31T07:25:16;9.95;;;3.10;;
27365;SDS011;14837;57.148;-2.144;2022-10-31T07:27:42;11.90;;;2.97;;
27365;SDS011;14837;57.148;-2.144;2022-10-31T07:30:09;7.43;;;2.22;;
27365;SDS011;14837;57.148;-2.144;2022-10-31T07:32:46;10.25;;;3.03;;
27365;SDS011;14837;57.148;-2.144;2022-10-31T07:35:14;7.45;;;2.40;;
27365;SDS011;14837;57.148;-2.144;2022-10-31T07:37:41;11.18;;;3.58;;
27365;SDS011;14837;57.148;-2.144;2022-10-31T07:40:08;7.47;;;2.42;;
27365;SDS011;14837;57.148;-2.144;2022-10-31T07:42:38;18.67;;;3.83;;
27365;SDS011;14837;57.148;-2.144;2022-10-31T07:45:05;11.95;;;3.03;;
27365;SDS011;14837;57.148;-2.144;2022-10-31T07:50:27;8.35;;;2.78;;
27365;SDS011;14837;57.148;-2.144;2022-10-31T07:53:04;12.55;;;2.67;;
27365;SDS011;14837;57.148;-2.144;2022-10-31T07:55:31;20.63;;;4.40;;
27365;SDS011;14837;57.148;-2.144;2022-10-31T07:58:02;14.68;;;3.17;;
27365;SDS011;14837;57.148;-2.144;2022-10-31T08:00:29;12.18;;;4.45;;
27365;SDS011;14837;57.148;-2.144;2022-10-31T08:02:57;11.40;;;2.67;;
27365;SDS011;14837;57.148;-2.144;2022-10-31T08:05:24;13.85;;;3.20;;
27365;SDS011;14837;57.148;-2.144;2022-10-31T08:07:51;8.18;;;3.13;;
27365;SDS011;14837;57.148;-2.144;2022-10-31T08:10:18;16.48;;;3.50;;
27365;SDS011;14837;57.148;-2.144;2022-10-31T08:12:44;11.35;;;3.53;;
27365;SDS011;14837;57.148;-2.144;2022-10-31T08:15:11;8.88;;;3.30;;
27365;SDS011;14837;57.148;-2.144;2022-10-31T08:17:37;11.57;;;4.05;;
27365;SDS011;14837;57.148;-2.144;2022-10-31T08:20:05;10.95;;;2.85;;
27365;SDS011;14837;57.148;-2.144;2022-10-31T08:22:31;12.68;;;3.15;;
27365;SDS011;14837;57.148;-2.144;2022-10-31T08:24:58;9.45;;;3.00;;
27365;SDS011;14837;57.148;-2.144;2022-10-31T08:27:24;10.88;;;3.85;;
27365;SDS011;14837;57.148;-2.144;2022-10-31T08:29:51;9.07;;;3.35;;
27365;SDS011;14837;57.148;-2.144;2022-10-31T08:32:17;9.95;;;3.30;;
27365;SDS011;14837;57.148;-2.144;2022-10-31T08:34:44;13.68;;;3.90;;
27365;SDS011;14837;57.148;-2.144;2022-10-31T08:37:10;10.80;;;2.70;;
27365;SDS011;14837;57.148;-2.144;2022-10-31T08:39:37;7.03;;;3.72;;
27365;SDS011;14837;57.148;-2.144;2022-10-31T08:42:03;13.65;;;3.30;;
27365;SDS011;14837;57.148;-2.144;2022-10-31T08:44:30;11.77;;;3.53;;
27365;SDS011;14837;57.148;-2.144;2022-10-31T08:46:56;9.88;;;3.60;;
27365;SDS011;14837;57.148;-2.144;2022-10-31T08:49:23;15.27;;;3.88;;
27365;SDS011;14837;57.148;-2.144;2022-10-31T08:51:49;12.55;;;3.17;;
27365;SDS011;14837;57.148;-2.144;2022-10-31T08:54:16;14.27;;;3.70;;
27365;SDS011;14837;57.148;-2.144;2022-10-31T08:56:43;13.77;;;3.65;;
27365;SDS011;14837;57.148;-2.144;2022-10-31T08:59:09;15.18;;;4.25;;
27365;SDS011;14837;57.148;-2.144;2022-10-31T09:01:36;10.82;;;4.13;;
27365;SDS011;14837;57.148;-2.144;2022-10-31T09:04:03;11.27;;;3.33;;
27365;SDS011;14837;57.148;-2.144;2022-10-31T09:06:29;14.85;;;3.90;;
27365;SDS011;14837;57.148;-2.144;2022-10-31T09:08:56;17.80;;;4.18;;
27365;SDS011;14837;57.148;-2.144;2022-10-31T09:11:22;14.18;;;3.75;;
27365;SDS011;14837;57.148;-2.144;2022-10-31T09:13:49;11.02;;;4.40;;
27365;SDS011;14837;57.148;-2.144;2022-10-31T09:16:18;15.32;;;4.40;;
27365;SDS011;14837;57.148;-2.144;2022-10-31T09:18:49;17.67;;;4.10;;
27365;SDS011;14837;57.148;-2.144;2022-10-31T09:21:18;11.57;;;3.92;;
27365;SDS011;14837;57.148;-2.144;2022-10-31T09:23:45;19.92;;;4.45;;
27365;SDS011;14837;57.148;-2.144;2022-10-31T09:26:12;9.93;;;3.85;;
27365;SDS011;14837;57.148;-2.144;2022-10-31T09:28:39;13.73;;;4.28;;
27365;SDS011;14837;57.148;-2.144;2022-10-31T09:31:05;17.70;;;3.75;;
27365;SDS011;14837;57.148;-2.144;2022-10-31T09:33:32;23.73;;;5.05;;
27365;SDS011;14837;57.148;-2.144;2022-10-31T09:35:59;15.50;;;4.00;;
27365;SDS011;14837;57.148;-2.144;2022-10-31T09:38:25;18.02;;;4.50;;
27365;SDS011;14837;57.148;-2.144;2022-10-31T09:40:55;16.02;;;4.10;;
27365;SDS011;14837;57.148;-2.144;2022-10-31T09:46:13;13.73;;;4.75;;
27365;SDS011;14837;57.148;-2.144;2022-10-31T09:51:18;11.15;;;3.45;;
27365;SDS011;14837;57.148;-2.144;2022-10-31T09:56:16;18.40;;;4.97;;
27365;SDS011;14837;57.148;-2.144;2022-10-31T09:58:47;13.43;;;3.92;;
27365;SDS011;14837;57.148;-2.144;2022-10-31T10:04:02;13.05;;;3.97;;
27365;SDS011;14837;57.148;-2.144;2022-10-31T10:06:29;15.68;;;4.38;;
27365;SDS011;14837;57.148;-2.144;2022-10-31T10:08:59;22.30;;;4.88;;
27365;SDS011;14837;57.148;-2.144;2022-10-31T10:27:20;12.07;;;3.05;;
27365;SDS011;14837;57.148;-2.144;2022-10-31T10:29:59;13.73;;;3.47;;
27365;SDS011;14837;57.148;-2.144;2022-10-31T10:32:27;15.50;;;3.47;;
27365;SDS011;14837;57.148;-2.144;2022-10-31T10:34:56;12.68;;;5.40;;
27365;SDS011;14837;57.148;-2.144;2022-10-31T10:37:28;15.48;;;4.07;;
27365;SDS011;14837;57.148;-2.144;2022-10-31T10:39:58;12.13;;;3.80;;
27365;SDS011;14837;57.148;-2.144;2022-10-31T10:42:29;14.55;;;4.07;;
27365;SDS011;14837;57.148;-2.144;2022-10-31T10:45:15;12.75;;;3.75;;
27365;SDS011;14837;57.148;-2.144;2022-10-31T10:48:10;14.05;;;3.25;;
27365;SDS011;14837;57.148;-2.144;2022-10-31T10:50:40;11.60;;;3.80;;
27365;SDS011;14837;57.148;-2.144;2022-10-31T10:56:08;15.10;;;4.38;;
27365;SDS011;14837;57.148;-2.144;2022-10-31T10:58:38;17.23;;;4.63;;
27365;SDS011;14837;57.148;-2.144;2022-10-31T11:01:14;13.80;;;4.60;;
27365;SDS011;14837;57.148;-2.144;2022-10-31T11:03:46;28.48;;;6.45;;
27365;SDS011;14837;57.148;-2.144;2022-10-31T11:06:16;8.95;;;3.63;;
27365;SDS011;14837;57.148;-2.144;2022-10-31T11:08:43;10.70;;;3.55;;
27365;SDS011;14837;57.148;-2.144;2022-10-31T11:13:43;14.30;;;4.45;;
27365;SDS011;14837;57.148;-2.144;2022-10-31T11:16:15;15.10;;;4.05;;
27365;SDS011;14837;57.148;-2.144;2022-10-31T11:18:52;14.05;;;3.65;;
27365;SDS011;14837;57.148;-2.144;2022-10-31T11:21:27;16.23;;;4.40;;
27365;SDS011;14837;57.148;-2.144;2022-10-31T11:26:30;13.88;;;3.85;;
27365;SDS011;14837;57.148;-2.144;2022-10-31T11:28:57;16.70;;;4.95;;
27365;SDS011;14837;57.148;-2.144;2022-10-31T11:31:25;18.90;;;5.00;;
27365;SDS011;14837;57.148;-2.144;2022-10-31T11:34:41;18.70;;;4.40;;
27365;SDS011;14837;57.148;-2.144;2022-10-31T11:36:38;13.60;;;4.55;;
27365;SDS011;14837;57.148;-2.144;2022-10-31T11:39:05;15.35;;;5.40;;
27365;SDS011;14837;57.148;-2.144;2022-10-31T11:41:39;18.50;;;4.50;;
27365;SDS011;14837;57.148;-2.144;2022-10-31T11:44:26;23.52;;;6.10;;
27365;SDS011;14837;57.148;-2.144;2022-10-31T11:46:58;16.52;;;4.53;;
27365;SDS011;14837;57.148;-2.144;2022-10-31T11:49:28;19.52;;;4.70;;
27365;SDS011;14837;57.148;-2.144;2022-10-31T11:51:56;13.10;;;4.85;;
27365;SDS011;14837;57.148;-2.144;2022-10-31T11:54:24;15.10;;;4.47;;
27365;SDS011;14837;57.148;-2.144;2022-10-31T11:56:52;20.92;;;4.72;;
27365;SDS011;14837;57.148;-2.144;2022-10-31T11:59:28;13.35;;;4.13;;
27365;SDS011;14837;57.148;-2.144;2022-10-31T12:01:56;24.35;;;4.47;;
27365;SDS011;14837;57.148;-2.144;2022-10-31T12:04:46;15.45;;;4.45;;
27365;SDS011;14837;57.148;-2.144;2022-10-31T12:07:10;20.10;;;5.53;;
27365;SDS011;14837;57.148;-2.144;2022-10-31T12:09:37;25.13;;;5.50;;
27365;SDS011;14837;57.148;-2.144;2022-10-31T12:40:39;25.55;;;6.90;;
27365;SDS011;14837;57.148;-2.144;2022-10-31T12:46:01;22.00;;;5.13;;
27365;SDS011;14837;57.148;-2.144;2022-10-31T12:48:40;17.15;;;5.13;;
27365;SDS011;14837;57.148;-2.144;2022-10-31T12:58:45;15.90;;;4.75;;
27365;SDS011;14837;57.148;-2.144;2022-10-31T13:01:30;20.10;;;5.68;;
27365;SDS011;14837;57.148;-2.144;2022-10-31T13:04:02;21.38;;;6.18;;
27365;SDS011;14837;57.148;-2.144;2022-10-31T13:06:42;15.02;;;4.53;;
27365;SDS011;14837;57.148;-2.144;2022-10-31T13:09:11;20.40;;;6.15;;
27365;SDS011;14837;57.148;-2.144;2022-10-31T13:11:44;22.98;;;6.57;;
27365;SDS011;14837;57.148;-2.144;2022-10-31T13:16:39;17.60;;;6.20;;
27365;SDS011;14837;57.148;-2.144;2022-10-31T13:19:16;19.33;;;5.38;;
27365;SDS011;14837;57.148;-2.144;2022-10-31T13:21:48;19.27;;;5.90;;
27365;SDS011;14837;57.148;-2.144;2022-10-31T13:24:19;15.98;;;5.80;;
27365;SDS011;14837;57.148;-2.144;2022-10-31T13:26:51;14.10;;;5.18;;
27365;SDS011;14837;57.148;-2.144;2022-10-31T13:29:21;14.60;;;4.90;;
27365;SDS011;14837;57.148;-2.144;2022-10-31T13:31:54;22.23;;;6.65;;
27365;SDS011;14837;57.148;-2.144;2022-10-31T13:34:37;17.13;;;6.00;;
27365;SDS011;14837;57.148;-2.144;2022-10-31T13:37:10;25.80;;;5.72;;
27365;SDS011;14837;57.148;-2.144;2022-10-31T13:45:14;21.33;;;5.82;;
27365;SDS011;14837;57.148;-2.144;2022-10-31T13:47:41;22.90;;;5.70;;
27365;SDS011;14837;57.148;-2.144;2022-10-31T13:50:20;25.95;;;6.53;;
27365;SDS011;14837;57.148;-2.144;2022-10-31T13:52:47;22.58;;;7.18;;
27365;SDS011;14837;57.148;-2.144;2022-10-31T13:57:59;22.65;;;6.93;;
27365;SDS011;14837;57.148;-2.144;2022-10-31T14:00:26;19.10;;;7.07;;
27365;SDS011;14837;57.148;-2.144;2022-10-31T14:02:53;21.67;;;6.05;;
27365;SDS011;14837;57.148;-2.144;2022-10-31T14:05:26;17.17;;;6.65;;
27365;SDS011;14837;57.148;-2.144;2022-10-31T14:07:53;23.77;;;7.18;;
27365;SDS011;14837;57.148;-2.144;2022-10-31T14:12:47;16.70;;;6.03;;
27365;SDS011;14837;57.148;-2.144;2022-10-31T14:15:19;22.63;;;6.80;;
27365;SDS011;14837;57.148;-2.144;2022-10-31T14:22:40;16.83;;;6.00;;
27365;SDS011;14837;57.148;-2.144;2022-10-31T14:25:27;20.77;;;6.88;;
27365;SDS011;14837;57.148;-2.144;2022-10-31T14:27:54;25.45;;;6.35;;
27365;SDS011;14837;57.148;-2.144;2022-10-31T14:30:24;19.98;;;7.18;;
27365;SDS011;14837;57.148;-2.144;2022-10-31T14:32:52;24.35;;;6.60;;
27365;SDS011;14837;57.148;-2.144;2022-10-31T14:35:20;23.15;;;7.75;;
27365;SDS011;14837;57.148;-2.144;2022-10-31T14:40:35;18.35;;;7.38;;
27365;SDS011;14837;57.148;-2.144;2022-10-31T14:43:19;21.85;;;7.43;;
27365;SDS011;14837;57.148;-2.144;2022-10-31T14:50:57;31.73;;;8.73;;
27365;SDS011;14837;57.148;-2.144;2022-10-31T14:53:34;17.17;;;6.90;;
27365;SDS011;14837;57.148;-2.144;2022-10-31T14:56:02;24.27;;;7.68;;
27365;SDS011;14837;57.148;-2.144;2022-10-31T14:58:42;16.00;;;6.18;;
27365;SDS011;14837;57.148;-2.144;2022-10-31T15:01:24;19.13;;;6.85;;
27365;SDS011;14837;57.148;-2.144;2022-10-31T15:03:51;18.58;;;7.57;;
27365;SDS011;14837;57.148;-2.144;2022-10-31T15:06:40;19.25;;;6.50;;
27365;SDS011;14837;57.148;-2.144;2022-10-31T15:09:24;20.08;;;7.28;;
27365;SDS011;14837;57.148;-2.144;2022-10-31T15:11:51;23.13;;;6.75;;
27365;SDS011;14837;57.148;-2.144;2022-10-31T15:14:24;16.70;;;7.10;;
27365;SDS011;14837;57.148;-2.144;2022-10-31T15:16:51;21.77;;;7.05;;
27365;SDS011;14837;57.148;-2.144;2022-10-31T15:19:28;19.95;;;7.72;;
27365;SDS011;14837;57.148;-2.144;2022-10-31T15:21:56;24.63;;;6.95;;
27365;SDS011;14837;57.148;-2.144;2022-10-31T15:24:24;19.15;;;6.82;;
27365;SDS011;14837;57.148;-2.144;2022-10-31T15:26:52;19.58;;;7.50;;
27365;SDS011;14837;57.148;-2.144;2022-10-31T15:29:22;25.08;;;7.43;;
27365;SDS011;14837;57.148;-2.144;2022-10-31T15:31:53;24.63;;;7.78;;
27365;SDS011;14837;57.148;-2.144;2022-10-31T15:34:43;28.75;;;8.40;;
27365;SDS011;14837;57.148;-2.144;2022-10-31T15:37:13;17.17;;;7.00;;
27365;SDS011;14837;57.148;-2.144;2022-10-31T15:39:41;26.90;;;7.63;;
27365;SDS011;14837;57.148;-2.144;2022-10-31T15:45:05;21.33;;;6.38;;
27365;SDS011;14837;57.148;-2.144;2022-10-31T15:47:32;19.30;;;7.45;;
27365;SDS011;14837;57.148;-2.144;2022-10-31T15:49:59;24.58;;;7.03;;
27365;SDS011;14837;57.148;-2.144;2022-10-31T15:52:34;23.98;;;8.27;;
27365;SDS011;14837;57.148;-2.144;2022-10-31T15:57:39;21.00;;;7.05;;
27365;SDS011;14837;57.148;-2.144;2022-10-31T16:00:06;19.70;;;6.50;;
27365;SDS011;14837;57.148;-2.144;2022-10-31T16:02:33;21.17;;;8.32;;
27365;SDS011;14837;57.148;-2.144;2022-10-31T16:05:00;22.08;;;7.07;;
27365;SDS011;14837;57.148;-2.144;2022-10-31T16:07:28;23.42;;;6.80;;
27365;SDS011;14837;57.148;-2.144;2022-10-31T16:09:59;31.42;;;8.57;;
27365;SDS011;14837;57.148;-2.144;2022-10-31T16:12:31;22.30;;;7.32;;
27365;SDS011;14837;57.148;-2.144;2022-10-31T16:14:58;25.60;;;7.78;;
27365;SDS011;14837;57.148;-2.144;2022-10-31T16:17:25;16.83;;;6.95;;
27365;SDS011;14837;57.148;-2.144;2022-10-31T16:19:57;24.42;;;7.18;;
27365;SDS011;14837;57.148;-2.144;2022-10-31T16:22:25;29.75;;;7.13;;
27365;SDS011;14837;57.148;-2.144;2022-10-31T16:24:57;22.92;;;7.65;;
27365;SDS011;14837;57.148;-2.144;2022-10-31T16:27:27;30.77;;;7.55;;
27365;SDS011;14837;57.148;-2.144;2022-10-31T16:29:55;20.63;;;7.38;;
27365;SDS011;14837;57.148;-2.144;2022-10-31T16:32:32;15.23;;;5.88;;
27365;SDS011;14837;57.148;-2.144;2022-10-31T16:35:00;18.50;;;6.57;;
27365;SDS011;14837;57.148;-2.144;2022-10-31T16:37:26;31.60;;;8.05;;
27365;SDS011;14837;57.148;-2.144;2022-10-31T16:39:53;20.52;;;6.88;;
27365;SDS011;14837;57.148;-2.144;2022-10-31T16:42:19;20.58;;;6.68;;
27365;SDS011;14837;57.148;-2.144;2022-10-31T16:44:46;24.92;;;8.13;;
27365;SDS011;14837;57.148;-2.144;2022-10-31T16:47:15;24.40;;;8.05;;
27365;SDS011;14837;57.148;-2.144;2022-10-31T16:49:42;22.15;;;8.20;;
27365;SDS011;14837;57.148;-2.144;2022-10-31T16:52:09;20.52;;;7.63;;